Time;durP1;ratioP1;P1;durP2;ratioP2;P2;SDS_P1;SDS_P2;PMS_P1;PMS_P2;Temp;Humidity;BMP_temperature;BMP_pressure;BME280_temperature;BME280_humidity;BME280_pressure;Samples;Min_cycle;Max_cycle;Signal;HPM_P1;HPM_P2
2022/11/15 00:00:51;;;;;;;8.00;4.78;;;;;;;11.36;93.87;101537.25;5105783;28;20093;-74
2022/11/15 00:03:18;;;;;;;8.70;5.28;;;;;;;11.31;94.00;101528.88;5088828;28;20487;-78
2022/11/15 00:05:44;;;;;;;8.57;4.95;;;;;;;11.12;94.73;101522.19;5098279;28;20032;-74
2022/11/15 00:08:12;;;;;;;7.43;5.10;;;;;;;11.05;94.92;101511.31;5111101;28;20020;-73
2022/11/15 00:10:38;;;;;;;7.80;5.13;;;;;;;11.24;94.40;101518.84;5101524;28;20121;-81
2022/11/15 00:13:11;;;;;;;8.90;5.53;;;;;;;11.29;93.20;101521.84;5085768;28;20028;-73
2022/11/15 00:15:38;;;;;;;7.00;5.10;;;;;;;11.37;93.44;101512.81;5109853;28;20470;-76
2022/11/15 00:18:05;;;;;;;7.55;5.05;;;;;;;11.49;92.70;101502.41;5096376;28;20040;-75
2022/11/15 00:20:33;;;;;;;10.00;4.90;;;;;;;11.27;92.75;101507.69;5108418;28;20028;-67
2022/11/15 00:22:58;;;;;;;5.78;4.75;;;;;;;11.18;93.60;101505.28;5085685;28;20024;-68
2022/11/15 00:25:23;;;;;;;7.35;5.10;;;;;;;11.25;93.51;101495.44;5101158;28;20491;-78
2022/11/15 00:27:51;;;;;;;6.95;5.10;;;;;;;11.16;93.50;101489.31;5111042;28;20027;-70
2022/11/15 00:30:17;;;;;;;8.55;4.78;;;;;;;11.07;93.46;101487.75;5063758;28;20028;-70
2022/11/15 00:32:42;;;;;;;8.40;4.72;;;;;;;11.17;93.97;101491.00;5088384;28;20035;-71
2022/11/15 00:35:07;;;;;;;5.95;4.70;;;;;;;11.29;93.10;101488.66;5087355;28;20035;-73
2022/11/15 00:37:33;;;;;;;5.93;4.70;;;;;;;11.44;92.66;101485.94;5099672;28;20119;-77
2022/11/15 00:39:58;;;;;;;7.00;5.00;;;;;;;11.52;92.38;101485.81;5092570;28;20041;-74
2022/11/15 00:42:23;;;;;;;6.68;4.88;;;;;;;11.52;92.01;101485.81;5098955;28;20051;-77
2022/11/15 00:44:49;;;;;;;8.38;4.97;;;;;;;11.45;92.42;101480.34;5086894;28;20039;-78
2022/11/15 00:47:14;;;;;;;5.90;4.78;;;;;;;11.27;92.52;101480.75;5105749;28;20406;-80
2022/11/15 00:49:40;;;;;;;8.98;5.03;;;;;;;11.29;92.93;101473.34;5096307;28;20491;-78
2022/11/15 00:52:06;;;;;;;7.80;4.93;;;;;;;11.36;92.86;101472.59;5091969;28;20509;-70
2022/11/15 00:54:31;;;;;;;5.45;4.30;;;;;;;11.51;92.14;101470.69;5099399;28;20043;-68
2022/11/15 00:56:56;;;;;;;7.43;4.80;;;;;;;11.43;92.15;101465.44;5085820;28;20379;-78
2022/11/15 00:59:22;;;;;;;7.10;4.60;;;;;;;11.48;91.70;101466.50;5106651;28;20051;-73
2022/11/15 01:01:47;;;;;;;6.88;4.90;;;;;;;11.39;91.76;101464.09;5078539;28;20052;-69
2022/11/15 01:04:13;;;;;;;6.78;4.60;;;;;;;11.33;92.45;101467.59;5109987;28;20536;-79
2022/11/15 01:06:39;;;;;;;7.43;4.63;;;;;;;11.31;92.33;101459.66;5100511;28;20106;-67
2022/11/15 01:09:04;;;;;;;6.28;4.75;;;;;;;11.10;92.47;101465.81;5084593;28;20127;-76
2022/11/15 01:11:29;;;;;;;8.38;4.50;;;;;;;11.22;92.33;101460.78;5107081;28;20043;-73
2022/11/15 01:13:55;;;;;;;6.22;4.90;;;;;;;11.29;92.03;101451.78;5078453;28;20115;-78
2022/11/15 01:16:21;;;;;;;8.23;4.80;;;;;;;11.18;92.23;101451.41;5090786;28;20398;-68
2022/11/15 01:18:46;;;;;;;7.97;5.07;;;;;;;11.12;92.29;101454.84;5066165;28;20028;-73
2022/11/15 01:21:16;;;;;;;7.15;5.13;;;;;;;11.09;92.53;101450.66;5101659;28;20035;-72
2022/11/15 01:23:42;;;;;;;9.52;5.55;;;;;;;11.34;91.49;101448.50;5109196;28;20063;-69
2022/11/15 01:26:10;;;;;;;7.15;4.70;;;;;;;11.21;91.70;101433.00;5096635;28;20082;-75
2022/11/15 01:28:38;;;;;;;6.07;4.70;;;;;;;11.12;91.57;101441.38;5105815;28;20047;-67
2022/11/15 01:31:08;;;;;;;6.88;4.68;;;;;;;11.21;91.27;101445.66;5103156;28;20394;-75
2022/11/15 01:33:36;;;;;;;6.95;4.70;;;;;;;11.29;91.20;101451.78;5097966;28;20441;-71
2022/11/15 01:36:12;;;;;;;10.63;4.85;;;;;;;11.39;90.39;101445.25;5074703;28;20083;-75
2022/11/15 01:38:38;;;;;;;8.25;4.43;;;;;;;11.34;90.87;101442.28;5081366;28;20027;-71
2022/11/15 01:41:04;;;;;;;6.80;4.78;;;;;;;11.28;91.05;101433.09;5084184;28;20031;-76
2022/11/15 01:43:35;;;;;;;6.72;4.63;;;;;;;11.34;91.08;101426.13;5106665;28;20067;-70
2022/11/15 01:46:05;;;;;;;8.25;5.00;;;;;;;11.22;90.78;101429.28;5095252;28;20071;-73
2022/11/15 01:48:34;;;;;;;8.75;4.93;;;;;;;11.24;90.44;101403.00;5105733;28;20035;-79
2022/11/15 01:51:05;;;;;;;8.35;5.43;;;;;;;11.40;90.42;101430.78;5067943;28;20062;-76
2022/11/15 01:53:33;;;;;;;10.55;5.18;;;;;;;11.46;90.39;101432.72;5099501;28;20031;-73
2022/11/15 01:56:02;;;;;;;7.35;5.35;;;;;;;11.29;90.29;101426.69;5092248;28;20035;-68
2022/11/15 01:58:27;;;;;;;9.70;5.38;;;;;;;11.35;90.32;101422.41;5098102;28;20482;-73
2022/11/15 02:00:55;;;;;;;8.43;6.15;;;;;;;11.28;90.59;101423.16;5068288;28;20035;-82
2022/11/15 02:03:26;;;;;;;7.82;5.57;;;;;;;11.11;90.83;101416.31;5104466;28;20043;-72
2022/11/15 02:05:53;;;;;;;9.98;5.35;;;;;;;10.94;91.01;101393.31;5077467;28;20084;-75
2022/11/15 02:08:21;;;;;;;7.72;5.53;;;;;;;11.16;91.34;101416.59;5108372;28;20490;-75
2022/11/15 02:10:47;;;;;;;7.38;4.75;;;;;;;11.16;91.19;101408.53;5099771;28;20030;-77
2022/11/15 02:13:15;;;;;;;7.47;4.93;;;;;;;11.08;92.51;101399.69;5082808;28;20031;-80
2022/11/15 02:15:55;;;;;;;6.28;4.50;;;;;;;10.77;92.12;101412.34;5089221;28;20030;-70
2022/11/15 02:18:31;;;;;;;7.10;4.40;;;;;;;10.62;92.97;101402.59;5062609;28;20035;-80
2022/11/15 02:21:11;;;;;;;7.43;5.38;;;;;;;10.71;93.07;101402.31;5102814;28;20028;-69
2022/11/15 02:23:56;;;;;;;7.70;4.88;;;;;;;10.78;93.14;101397.84;5106747;28;20035;-80
2022/11/15 02:26:33;;;;;;;6.18;5.00;;;;;;;11.01;92.21;101408.53;5079978;28;20188;-71
2022/11/15 02:29:03;;;;;;;6.88;5.18;;;;;;;10.78;92.91;101405.94;5102487;28;20023;-67
2022/11/15 02:31:55;;;;;;;8.40;5.50;;;;;;;10.70;92.70;101406.03;5105283;28;20035;-74
2022/11/15 02:34:42;;;;;;;7.47;5.90;;;;;;;10.64;93.86;101398.69;5095974;28;20058;-76
2022/11/15 02:37:10;;;;;;;7.00;4.90;;;;;;;10.86;92.68;101394.25;5101118;28;20087;-69
2022/11/15 02:39:46;;;;;;;7.57;5.45;;;;;;;10.68;92.28;101396.47;5106185;28;20509;-76
2022/11/15 02:45:13;;;;;;;8.32;5.15;;;;;;;10.99;91.34;101390.88;5101311;28;20490;-77
2022/11/15 02:47:43;;;;;;;8.18;5.03;;;;;;;11.03;91.53;101386.81;5106579;28;20032;-73
2022/11/15 02:50:15;;;;;;;9.70;5.50;;;;;;;11.06;91.08;101378.34;5076590;28;20119;-76
2022/11/15 02:52:40;;;;;;;5.85;4.60;;;;;;;11.12;91.40;101384.81;5104614;28;20061;-74
2022/11/15 02:55:32;;;;;;;6.78;4.93;;;;;;;10.94;91.19;101371.78;5101917;28;20023;-81
2022/11/15 02:58:25;;;;;;;8.88;5.22;;;;;;;11.08;91.03;101383.53;5094960;28;20440;-80
2022/11/15 03:01:08;;;;;;;7.45;4.75;;;;;;;11.15;91.01;101379.88;5084758;28;20480;-73
2022/11/15 03:04:03;;;;;;;6.78;5.30;;;;;;;11.21;90.90;101379.13;5105493;28;20047;-79
2022/11/15 03:06:47;;;;;;;8.43;5.43;;;;;;;10.86;91.13;101380.78;5080374;28;20023;-72
2022/11/15 03:09:28;;;;;;;8.88;5.40;;;;;;;11.06;90.39;101370.28;5081987;28;20032;-72
2022/11/15 03:12:09;;;;;;;6.22;4.80;;;;;;;11.02;91.28;101377.88;5089451;28;20558;-74
2022/11/15 03:14:51;;;;;;;6.95;4.65;;;;;;;11.11;90.72;101388.56;5097269;28;20027;-73
2022/11/15 03:17:26;;;;;;;7.70;5.47;;;;;;;10.97;91.12;101377.59;5081253;28;20056;-79
2022/11/15 03:19:55;;;;;;;7.55;5.72;;;;;;;10.64;90.41;101352.94;5089551;28;20032;-71
2022/11/15 03:22:24;;;;;;;6.75;4.90;;;;;;;10.81;90.63;101356.28;5095252;28;20170;-75
2022/11/15 03:24:57;;;;;;;8.15;4.78;;;;;;;10.85;91.12;101379.09;5103083;28;20028;-75
2022/11/15 03:27:27;;;;;;;7.18;5.47;;;;;;;10.71;91.21;101383.47;5086514;28;20035;-72
2022/11/15 03:30:00;;;;;;;7.47;5.28;;;;;;;10.74;90.78;101364.25;5077303;28;20512;-71
2022/11/15 03:32:30;;;;;;;9.40;4.95;;;;;;;10.93;90.67;101392.47;5088176;28;20486;-73
2022/11/15 03:35:08;;;;;;;7.40;5.35;;;;;;;10.85;90.39;101391.72;5099996;28;20023;-72
2022/11/15 03:37:44;;;;;;;7.15;5.50;;;;;;;10.47;91.33;101354.16;5097207;28;20502;-79
2022/11/15 03:40:10;;;;;;;7.15;4.95;;;;;;;10.31;93.69;101374.81;5107657;28;20067;-72
2022/11/15 03:43:07;;;;;;;9.23;5.53;;;;;;;10.46;94.71;101382.91;5096955;28;20482;-78
2022/11/15 03:45:43;;;;;;;9.30;5.00;;;;;;;10.54;93.78;101377.44;5058582;28;20042;-78
2022/11/15 03:48:14;;;;;;;9.02;5.38;;;;;;;10.69;93.17;101374.72;5107699;28;20509;-79
2022/11/15 03:50:41;;;;;;;7.15;5.10;;;;;;;10.80;92.24;101371.59;5097376;28;20102;-73
2022/11/15 03:53:07;;;;;;;8.40;5.63;;;;;;;11.00;91.11;101373.72;5067977;28;20062;-83
2022/11/15 03:55:33;;;;;;;8.02;5.72;;;;;;;11.09;91.02;101375.25;5090523;28;20059;-76
2022/11/15 03:58:00;;;;;;;8.07;5.88;;;;;;;10.87;91.98;101376.22;5079699;28;20516;-82
2022/11/15 04:00:30;;;;;;;8.18;5.78;;;;;;;10.77;92.12;101376.53;5110209;28;20039;-75
2022/11/15 04:02:58;;;;;;;9.98;6.40;;;;;;;10.72;92.99;101371.69;5103195;28;20421;-79
2022/11/15 04:05:24;;;;;;;8.23;5.93;;;;;;;10.48;94.64;101371.97;5101673;28;20036;-77
2022/11/15 04:07:49;;;;;;;12.90;6.28;;;;;;;10.24;96.29;101371.16;5111034;28;20505;-77
2022/11/15 04:10:16;;;;;;;8.75;6.47;;;;;;;10.37;95.11;101362.50;5079556;28;20024;-84
2022/11/15 04:12:46;;;;;;;8.45;6.10;;;;;;;10.41;94.92;101365.66;5089311;28;20031;-79
2022/11/15 04:15:16;;;;;;;11.35;6.18;;;;;;;10.32;96.10;101363.03;5105458;28;20123;-79
2022/11/15 04:17:48;;;;;;;11.40;6.25;;;;;;;10.47;95.56;101367.59;5099139;28;20066;-78
2022/11/15 04:25:56;;;;;;;10.07;6.05;;;;;;;10.39;95.60;101356.91;5097450;28;20020;-71
2022/11/15 04:28:22;;;;;;;7.85;6.20;;;;;;;10.44;95.00;101360.72;5111024;28;20040;-67
2022/11/15 04:30:48;;;;;;;10.18;6.93;;;;;;;10.46;95.56;101366.78;5101794;28;20057;-78
2022/11/15 04:33:13;;;;;;;9.32;6.28;;;;;;;10.66;94.42;101360.81;5103396;28;20036;-70
2022/11/15 04:35:39;;;;;;;9.60;6.32;;;;;;;10.59;93.99;101358.03;5109679;28;20490;-73
2022/11/15 04:38:07;;;;;;;8.15;6.47;;;;;;;10.27;95.27;101338.56;5079391;28;20059;-75
2022/11/15 04:40:32;;;;;;;7.93;5.80;;;;;;;10.48;95.51;101361.19;5109805;28;20449;-67
2022/11/15 04:42:58;;;;;;;12.30;7.13;;;;;;;10.41;95.41;101366.47;5103970;28;20098;-76
2022/11/15 04:45:23;;;;;;;10.60;7.40;;;;;;;10.50;95.21;101348.41;5101502;28;20035;-78
2022/11/15 04:47:49;;;;;;;10.80;7.07;;;;;;;10.66;93.93;101347.38;5109867;28;20028;-74
2022/11/15 04:50:15;;;;;;;8.20;6.70;;;;;;;10.49;94.17;101352.94;5079688;28;20448;-73
2022/11/15 04:52:50;;;;;;;9.18;7.32;;;;;;;10.55;95.01;101345.97;5107715;28;20099;-72
2022/11/15 04:55:15;;;;;;;8.43;6.85;;;;;;;10.58;94.18;101337.53;5105704;28;20027;-78
2022/11/15 04:57:40;;;;;;;11.68;7.30;;;;;;;10.33;94.41;101302.84;5064193;28;20070;-75
2022/11/15 05:00:27;;;;;;;8.55;7.03;;;;;;;10.60;93.83;101342.75;5110436;28;20034;-77
2022/11/15 05:05:36;;;;;;;10.35;7.30;;;;;;;10.46;94.13;101309.41;5052068;28;20060;-70
2022/11/15 05:08:02;;;;;;;8.38;7.15;;;;;;;10.75;93.09;101340.88;5050462;28;20490;-78
2022/11/15 05:10:27;;;;;;;11.70;7.85;;;;;;;10.67;93.74;101341.81;5050712;28;20036;-68
2022/11/15 05:12:53;;;;;;;9.85;6.15;;;;;;;10.76;93.22;101343.38;5050474;28;20037;-77
2022/11/15 05:15:18;;;;;;;8.85;6.60;;;;;;;10.35;95.06;101332.25;5017332;28;20044;-79
2022/11/15 05:17:43;;;;;;;8.77;6.38;;;;;;;10.34;94.70;101339.47;5050218;28;20079;-78
2022/11/15 05:20:10;;;;;;;9.63;6.85;;;;;;;10.26;95.56;101326.09;5050517;28;20043;-81
2022/11/15 05:22:35;;;;;;;8.43;6.18;;;;;;;10.33;95.04;101332.44;5050447;28;20044;-83
2022/11/15 05:25:00;;;;;;;10.23;6.35;;;;;;;10.20;95.18;101310.69;5033896;28;20033;-66
2022/11/15 05:27:26;;;;;;;8.90;6.15;;;;;;;10.38;94.50;101339.13;5024069;28;20587;-84
2022/11/15 05:29:51;;;;;;;7.68;5.60;;;;;;;10.46;93.24;101331.81;5046980;28;20116;-75
2022/11/15 05:32:20;;;;;;;7.57;6.00;;;;;;;10.51;93.63;101331.22;5034743;28;20044;-81
2022/11/15 05:34:46;;;;;;;7.43;5.75;;;;;;;10.52;93.32;101333.72;5097091;28;20114;-64
2022/11/15 05:37:11;;;;;;;9.20;6.20;;;;;;;10.61;93.12;101320.19;5104175;28;20442;-76
2022/11/15 05:39:37;;;;;;;9.05;6.20;;;;;;;10.57;92.70;101322.41;5073348;28;20035;-71
2022/11/15 05:42:13;;;;;;;8.18;5.72;;;;;;;10.60;92.78;101323.91;5097527;28;20485;-81
2022/11/15 05:44:44;;;;;;;8.18;5.72;;;;;;;10.28;94.01;101329.44;5106846;28;20538;-75
2022/11/15 05:47:12;;;;;;;12.32;6.35;;;;;;;10.54;93.50;101329.00;5103547;28;20028;-71
2022/11/15 05:49:42;;;;;;;9.13;5.97;;;;;;;10.38;94.26;101342.63;5098450;28;20032;-79
2022/11/15 05:52:11;;;;;;;7.03;5.60;;;;;;;10.46;93.33;101347.09;5109596;28;20031;-82
2022/11/15 05:54:37;;;;;;;11.10;5.65;;;;;;;10.51;93.13;101345.50;5080290;28;20034;-84
2022/11/15 05:57:04;;;;;;;9.50;5.72;;;;;;;10.68;92.93;101348.03;5084808;28;20394;-83
2022/11/15 05:59:31;;;;;;;9.98;5.65;;;;;;;10.58;93.32;101345.59;5086609;28;20032;-79
2022/11/15 06:01:57;;;;;;;7.97;5.47;;;;;;;10.47;94.26;101340.72;5060868;28;20052;-80
2022/11/15 06:04:26;;;;;;;10.35;5.85;;;;;;;10.48;93.45;101339.66;5089840;28;20036;-83
2022/11/15 06:06:51;;;;;;;10.45;5.78;;;;;;;10.73;92.18;101334.84;5097952;28;20034;-72
2022/11/15 06:09:16;;;;;;;10.65;6.18;;;;;;;10.57;92.46;101336.72;5098992;28;20036;-80
2022/11/15 06:11:42;;;;;;;10.73;6.10;;;;;;;10.63;93.09;101336.97;5105303;28;20036;-84
2022/11/15 06:14:07;;;;;;;7.55;5.90;;;;;;;10.38;93.73;101326.50;5077243;28;20047;-76
2022/11/15 06:16:33;;;;;;;10.15;6.07;;;;;;;10.49;93.13;101319.81;5106479;28;20036;-83
2022/11/15 06:18:58;;;;;;;7.43;5.65;;;;;;;10.71;92.32;101326.94;5083033;28;20116;-80
2022/11/15 06:21:24;;;;;;;7.97;5.30;;;;;;;10.62;91.33;101329.91;5100415;28;20473;-79
2022/11/15 06:23:49;;;;;;;8.35;5.78;;;;;;;10.70;92.07;101329.84;5108664;28;20478;-84
2022/11/15 06:26:14;;;;;;;9.60;5.70;;;;;;;10.75;92.06;101335.47;5095553;28;20394;-80
2022/11/15 06:28:40;;;;;;;7.55;5.78;;;;;;;10.53;92.42;101330.03;5106091;28;20043;-82
2022/11/15 06:31:10;;;;;;;7.85;5.90;;;;;;;10.77;91.96;101328.06;5084012;28;20060;-76
2022/11/15 06:33:36;;;;;;;8.45;5.75;;;;;;;10.49;92.60;101319.81;5080022;28;20024;-72
2022/11/15 06:36:07;;;;;;;7.72;5.38;;;;;;;10.47;92.72;101327.25;5108665;28;20038;-69
2022/11/15 06:38:33;;;;;;;8.98;5.80;;;;;;;10.39;93.25;101313.88;5097361;28;20461;-84
2022/11/15 06:41:04;;;;;;;6.70;5.30;;;;;;;10.40;92.97;101326.28;5085570;28;20024;-75
2022/11/15 06:43:29;;;;;;;8.13;5.13;;;;;;;10.33;93.55;101321.69;5104817;28;20031;-64
2022/11/15 06:45:55;;;;;;;6.30;4.70;;;;;;;10.22;94.17;101327.47;5098295;28;20036;-65
2022/11/15 06:48:20;;;;;;;7.93;5.07;;;;;;;10.24;92.68;101312.00;5113794;28;20028;-63
2022/11/15 06:50:53;;;;;;;8.23;4.85;;;;;;;10.37;92.67;101337.47;5103048;28;20062;-65
2022/11/15 06:53:18;;;;;;;8.50;5.05;;;;;;;10.49;92.34;101335.94;5107166;28;20050;-64
2022/11/15 06:55:44;;;;;;;9.30;4.80;;;;;;;10.60;91.48;101335.50;5113029;28;20036;-63
2022/11/15 06:58:09;;;;;;;6.88;4.90;;;;;;;10.51;91.81;101333.94;5083360;28;20486;-64
2022/11/15 07:00:35;;;;;;;8.63;5.07;;;;;;;10.57;91.67;101338.56;5113777;28;20073;-64
2022/11/15 07:03:01;;;;;;;7.70;5.05;;;;;;;10.63;90.83;101342.34;5106249;28;20040;-70
2022/11/15 07:05:29;;;;;;;7.57;4.43;;;;;;;10.62;91.12;101340.69;5105261;28;20740;-63
2022/11/15 07:07:56;;;;;;;7.53;4.88;;;;;;;10.85;90.24;101349.47;5113875;28;20031;-65
2022/11/15 07:10:23;;;;;;;8.57;4.90;;;;;;;10.58;90.83;101351.00;5098263;28;20028;-76
2022/11/15 07:12:49;;;;;;;6.18;4.40;;;;;;;10.57;91.24;101355.53;5109085;28;20020;-64
2022/11/15 07:15:16;;;;;;;5.47;4.15;;;;;;;10.40;90.99;101370.19;5110773;28;20101;-64
2022/11/15 07:17:42;;;;;;;6.03;4.60;;;;;;;10.38;92.42;101366.00;5086161;28;20032;-67
2022/11/15 07:20:08;;;;;;;6.43;4.47;;;;;;;10.43;92.12;101367.16;5114841;28;20032;-64
2022/11/15 07:22:34;;;;;;;7.35;4.80;;;;;;;10.58;91.31;101378.72;5084932;28;20470;-65
2022/11/15 07:24:59;;;;;;;6.63;4.97;;;;;;;10.49;90.43;101357.47;5109757;28;20051;-64
2022/11/15 07:27:24;;;;;;;6.82;4.47;;;;;;;10.91;89.93;101394.50;5095151;28;20036;-64
2022/11/15 07:29:50;;;;;;;8.50;4.65;;;;;;;10.80;90.13;101395.81;5088814;28;20032;-65
2022/11/15 07:32:15;;;;;;;6.78;4.13;;;;;;;10.80;90.21;101409.28;5119438;28;20558;-65
2022/11/15 07:34:41;;;;;;;6.75;3.97;;;;;;;10.35;91.16;101405.72;5102101;28;20040;-65
2022/11/15 07:37:06;;;;;;;7.15;4.55;;;;;;;10.64;90.84;101408.63;5071286;28;20430;-67
2022/11/15 07:39:31;;;;;;;6.32;4.38;;;;;;;10.84;89.68;101414.28;5103652;28;20435;-79
2022/11/15 07:42:52;;;;;;;6.93;4.53;;;;;;;10.72;89.29;101401.28;5094392;28;20028;-84
2022/11/15 07:44:42;;;;;;;8.35;4.60;;;;;;;10.54;90.09;101425.03;5089566;28;20115;-64
2022/11/15 07:47:07;;;;;;;6.22;4.20;;;;;;;10.75;89.80;101427.00;5110571;28;20461;-64
2022/11/15 07:49:33;;;;;;;7.18;4.50;;;;;;;11.00;88.71;101422.19;5113475;28;20081;-79
2022/11/15 07:51:58;;;;;;;6.57;4.05;;;;;;;11.02;88.05;101425.50;5101930;28;20096;-65
2022/11/15 07:54:23;;;;;;;8.15;4.45;;;;;;;11.14;88.08;101431.28;5097072;28;20509;-84
2022/11/15 07:56:49;;;;;;;8.90;4.63;;;;;;;10.97;88.09;101425.25;5103598;28;20035;-84
2022/11/15 07:59:14;;;;;;;6.45;4.72;;;;;;;10.87;89.74;101430.09;5088567;28;20127;-67
2022/11/15 08:01:39;;;;;;;6.68;4.45;;;;;;;10.62;90.29;101424.13;5093306;28;20539;-76
2022/11/15 08:04:05;;;;;;;7.90;4.15;;;;;;;10.93;88.55;101414.03;5099730;28;20043;-82
2022/11/15 08:06:30;;;;;;;6.20;4.22;;;;;;;10.54;88.71;101414.28;5111835;28;20107;-66
2022/11/15 08:08:58;;;;;;;5.43;3.97;;;;;;;10.89;88.76;101433.41;5107076;28;20048;-80
2022/11/15 08:11:23;;;;;;;9.77;4.53;;;;;;;11.08;87.45;101435.53;5086902;28;20074;-65
2022/11/15 08:13:48;;;;;;;8.07;4.13;;;;;;;11.11;87.51;101431.66;5113192;28;20085;-84
2022/11/15 08:16:14;;;;;;;6.95;4.53;;;;;;;11.02;87.43;101422.81;5083917;28;20066;-73
2022/11/15 08:18:39;;;;;;;7.13;4.38;;;;;;;10.84;88.39;101425.91;5111388;28;20402;-78
2022/11/15 08:21:05;;;;;;;5.93;4.57;;;;;;;11.07;87.26;101436.56;5087094;28;20027;-65
2022/11/15 08:23:31;;;;;;;6.88;4.05;;;;;;;10.90;87.96;101440.47;5087566;28;20040;-73
2022/11/15 08:26:02;;;;;;;7.25;4.50;;;;;;;10.76;88.57;101434.03;5088066;28;20081;-65
2022/11/15 08:28:28;;;;;;;8.52;4.18;;;;;;;10.89;88.34;101438.78;5095056;28;20024;-64
2022/11/15 08:30:53;;;;;;;7.55;4.68;;;;;;;10.98;88.17;101443.06;5080909;28;20024;-64
2022/11/15 08:33:19;;;;;;;5.18;3.95;;;;;;;10.95;88.57;101451.50;5109084;28;20040;-70
2022/11/15 08:35:44;;;;;;;6.65;4.32;;;;;;;10.97;88.13;101441.41;5086953;28;20135;-64
2022/11/15 08:38:10;;;;;;;8.43;4.70;;;;;;;10.80;88.73;101446.13;5114025;28;20039;-64
2022/11/15 08:40:35;;;;;;;8.07;5.00;;;;;;;10.80;88.88;101444.28;5084349;28;20028;-64
2022/11/15 08:43:02;;;;;;;7.28;5.40;;;;;;;10.85;88.20;101432.13;5092730;28;20032;-67
2022/11/15 08:45:29;;;;;;;7.82;4.53;;;;;;;11.00;88.17;101447.25;5075584;28;20039;-67
2022/11/15 08:47:54;;;;;;;10.32;4.20;;;;;;;10.96;88.00;101445.97;5083957;28;20032;-66
2022/11/15 08:50:20;;;;;;;7.70;4.60;;;;;;;11.13;87.89;101441.22;5112383;28;20549;-68
2022/11/15 08:52:45;;;;;;;6.32;4.28;;;;;;;11.18;86.41;101440.63;5103903;28;20479;-64
2022/11/15 08:55:11;;;;;;;6.32;4.20;;;;;;;10.86;87.68;101404.16;5087972;28;20036;-79
2022/11/15 08:57:36;;;;;;;6.05;4.10;;;;;;;11.13;87.18;101427.75;5109300;28;20035;-65
2022/11/15 09:00:22;;;;;;;6.28;4.30;;;;;;;11.03;86.49;101416.44;5103146;28;20394;-64
2022/11/15 09:02:47;;;;;;;5.82;4.47;;;;;;;10.80;88.73;101433.50;5112338;28;20040;-64
2022/11/15 09:05:13;;;;;;;7.68;4.07;;;;;;;10.89;88.28;101433.41;5090966;28;20040;-64
2022/11/15 09:07:38;;;;;;;6.78;4.03;;;;;;;11.10;87.48;101430.81;5104987;28;20277;-66
2022/11/15 09:10:04;;;;;;;5.32;4.15;;;;;;;11.09;87.56;101421.03;5066806;28;20038;-64
2022/11/15 09:12:29;;;;;;;6.82;4.18;;;;;;;10.92;88.73;101436.56;5105503;28;20048;-64
2022/11/15 09:14:55;;;;;;;5.97;4.18;;;;;;;10.96;87.79;101402.00;5091278;28;20116;-64
2022/11/15 09:17:20;;;;;;;6.65;4.53;;;;;;;11.09;86.98;101429.13;5086293;28;20082;-75
2022/11/15 09:19:45;;;;;;;9.43;4.47;;;;;;;11.29;86.23;101430.22;5096934;28;20059;-79
2022/11/15 09:22:11;;;;;;;5.97;4.25;;;;;;;11.23;85.56;101427.47;5108111;28;20039;-82
2022/11/15 09:24:36;;;;;;;6.80;4.05;;;;;;;11.21;86.39;101430.31;5096246;28;20142;-84
2022/11/15 09:27:02;;;;;;;5.03;4.18;;;;;;;10.98;87.44;101432.28;5102874;28;20032;-81
2022/11/15 09:29:27;;;;;;;7.07;4.07;;;;;;;10.88;87.00;101448.72;5085385;28;20486;-78
2022/11/15 09:31:53;;;;;;;6.85;4.50;;;;;;;11.36;86.07;101453.72;5095676;28;20035;-84
2022/11/15 09:34:19;;;;;;;9.20;4.60;;;;;;;11.46;85.43;101447.00;5108071;28;20387;-79
2022/11/15 09:36:44;;;;;;;7.70;4.45;;;;;;;11.47;84.89;101451.38;5097907;28;20040;-81
2022/11/15 09:39:09;;;;;;;6.35;4.13;;;;;;;11.32;85.68;101455.09;5084616;28;20074;-78
2022/11/15 09:42:15;;;;;;;8.93;4.40;;;;;;;11.12;85.52;101450.28;5106967;28;20072;-64
2022/11/15 09:44:49;;;;;;;8.38;4.10;;;;;;;11.24;86.18;101454.19;5090020;28;20019;-69
2022/11/15 09:47:47;;;;;;;9.27;4.18;;;;;;;11.16;85.78;101462.38;5111141;28;20036;-65
2022/11/15 09:50:17;;;;;;;8.73;4.43;;;;;;;11.47;84.77;101458.63;5115624;28;20031;-64
2022/11/15 09:52:45;;;;;;;7.20;4.50;;;;;;;11.31;86.41;101454.28;5105311;28;20020;-66
2022/11/15 09:55:21;;;;;;;6.28;3.90;;;;;;;11.45;85.09;101452.56;5110710;28;20058;-63
2022/11/15 09:58:03;;;;;;;7.60;4.32;;;;;;;11.51;85.39;101462.59;5096212;28;20035;-63
2022/11/15 10:00:37;;;;;;;8.85;4.05;;;;;;;11.58;84.75;101457.28;5087672;28;20046;-63
2022/11/15 10:03:15;;;;;;;13.27;7.97;;;;;;;11.53;84.42;101449.78;5111050;28;20098;-63
2022/11/15 10:06:00;;;;;;;6.40;4.30;;;;;;;11.27;85.61;101451.13;5112726;28;20031;-63
2022/11/15 10:09:07;;;;;;;15.02;8.50;;;;;;;11.50;85.29;101461.78;5086574;28;20405;-64
2022/11/15 10:11:36;;;;;;;11.18;7.43;;;;;;;11.43;85.43;101450.09;5061027;28;20051;-64
2022/11/15 10:14:15;;;;;;;6.38;5.25;;;;;;;11.22;86.40;101450.84;5116460;28;20442;-64
2022/11/15 10:17:22;;;;;;;17.30;10.55;;;;;;;11.07;85.42;101377.31;5089398;28;20024;-64
2022/11/15 10:20:00;;;;;;;19.23;12.30;;;;;;;11.51;84.48;101441.03;5045193;28;20476;-64
2022/11/15 10:22:50;;;;;;;20.08;12.98;;;;;;;11.45;85.11;101461.50;5072860;28;20040;-64
2022/11/15 10:25:17;;;;;;;7.65;5.25;;;;;;;11.49;84.92;101462.81;5039762;28;20185;-65
2022/11/15 10:28:02;;;;;;;12.73;6.25;;;;;;;11.55;85.32;101466.59;5062456;28;20147;-64
2022/11/15 10:30:35;;;;;;;7.00;5.10;;;;;;;11.50;84.75;101464.47;5039449;28;20033;-64
2022/11/15 10:33:13;;;;;;;8.95;4.90;;;;;;;11.72;84.04;101451.88;5038862;28;20037;-64
2022/11/15 10:35:39;;;;;;;7.75;4.72;;;;;;;11.64;84.29;101462.75;5069404;28;20385;-64
2022/11/15 10:38:06;;;;;;;8.00;4.93;;;;;;;11.48;84.49;101465.69;5042959;28;20040;-64
2022/11/15 10:40:32;;;;;;;7.00;4.82;;;;;;;11.81;84.22;101463.34;5072565;28;20088;-63
2022/11/15 10:43:09;;;;;;;6.95;4.65;;;;;;;11.61;83.87;101467.69;5046723;28;20106;-64
2022/11/15 10:45:35;;;;;;;6.88;4.22;;;;;;;11.52;84.16;101458.88;5063815;28;20056;-64
2022/11/15 10:48:29;;;;;;;8.45;4.68;;;;;;;11.64;83.76;101459.22;5070265;28;20403;-64
2022/11/15 10:50:56;;;;;;;8.97;5.10;;;;;;;11.68;83.79;101453.25;5066118;28;20039;-63
2022/11/15 10:53:33;;;;;;;10.23;4.40;;;;;;;11.86;83.13;101454.75;5090589;28;20898;-63
2022/11/15 10:56:13;;;;;;;7.35;4.32;;;;;;;11.84;83.17;101454.91;5115273;28;20028;-64
2022/11/15 10:58:43;;;;;;;6.65;4.13;;;;;;;11.80;83.57;101442.00;5071958;28;20023;-63
2022/11/15 11:01:17;;;;;;;6.18;4.35;;;;;;;11.48;83.88;101436.03;5108825;28;20051;-63
2022/11/15 11:03:45;;;;;;;6.35;4.38;;;;;;;11.65;84.33;101447.41;5093591;28;20023;-63
2022/11/15 11:06:18;;;;;;;6.20;4.00;;;;;;;11.36;84.19;101410.63;5100368;28;20062;-64
2022/11/15 11:08:57;;;;;;;7.97;4.15;;;;;;;11.36;83.81;101414.16;5112205;28;20035;-66
2022/11/15 11:11:23;;;;;;;6.32;3.63;;;;;;;11.65;83.77;101426.69;5090066;28;20370;-64
2022/11/15 11:13:48;;;;;;;6.95;3.65;;;;;;;11.68;83.54;101426.31;5085009;28;20034;-63
2022/11/15 11:16:13;;;;;;;6.35;3.92;;;;;;;11.28;83.70;101428.53;5095727;28;20035;-63
2022/11/15 11:19:13;;;;;;;5.85;3.80;;;;;;;11.44;84.62;101437.44;5084380;28;20030;-63
2022/11/15 11:21:59;;;;;;;6.13;3.88;;;;;;;11.46;83.78;101406.59;5043170;28;20040;-80
2022/11/15 11:24:36;;;;;;;7.18;4.80;;;;;;;11.45;83.50;101426.47;5053693;28;20033;-64
2022/11/15 11:27:25;;;;;;;9.65;4.10;;;;;;;11.71;84.03;101444.78;5053251;28;20106;-63
2022/11/15 11:30:03;;;;;;;9.43;3.97;;;;;;;11.75;83.31;101435.31;5053866;28;20059;-63
2022/11/15 11:32:46;;;;;;;8.88;4.00;;;;;;;11.54;83.85;101432.59;5038788;28;20135;-63
2022/11/15 11:35:15;;;;;;;6.38;4.22;;;;;;;11.69;83.80;101433.38;5038681;28;20092;-64
2022/11/15 11:37:49;;;;;;;6.38;4.07;;;;;;;11.83;83.42;101428.97;5050689;28;20028;-65
2022/11/15 11:40:33;;;;;;;6.55;4.32;;;;;;;11.46;84.46;101436.22;5057711;28;20435;-69
2022/11/15 11:43:23;;;;;;;7.10;4.03;;;;;;;11.65;84.19;101428.53;5068345;28;20024;-64
2022/11/15 11:45:50;;;;;;;6.15;4.00;;;;;;;11.75;84.17;101432.63;5042901;28;20029;-65
2022/11/15 11:48:38;;;;;;;6.20;4.10;;;;;;;11.72;83.30;101432.16;5070876;28;20376;-64